Time;durP1;ratioP1;P1;durP2;ratioP2;P2;SDS_P1;SDS_P2;PMS_P1;PMS_P2;Temp;Humidity;BMP_temperature;BMP_pressure;BME280_temperature;BME280_humidity;BME280_pressure;Samples;Min_cycle;Max_cycle;Signal;HPM_P1;HPM_P2
2021/12/17 00:04:31;;;;;;;19.70;10.17;;;;;;;3.35;84.33;95625.88;4992371;28;20212;-75
2021/12/17 00:06:57;;;;;;;21.43;10.47;;;;;;;3.38;84.46;95612.56;4992366;28;20279;-75
2021/12/17 00:09:22;;;;;;;20.20;10.50;;;;;;;3.46;84.71;95624.81;4991822;28;20956;-76
2021/12/17 00:11:48;;;;;;;19.37;10.23;;;;;;;3.43;84.44;95604.31;4991814;28;20192;-76
2021/12/17 00:14:25;;;;;;;14.60;8.77;;;;;;;3.61;84.15;95631.19;4991726;28;20191;-75
2021/12/17 00:16:50;;;;;;;15.63;8.70;;;;;;;3.68;83.89;95636.59;4991970;28;20184;-75
2021/12/17 00:49:22;;;;;;;13.17;6.40;;;;;;;3.93;82.01;95624.59;4991236;28;20654;-75
2021/12/17 00:51:59;;;;;;;14.33;7.97;;;;;;;3.96;81.81;95627.72;4993682;28;20227;-75
2021/12/17 00:54:36;;;;;;;16.30;8.13;;;;;;;4.07;80.74;95622.25;4995596;28;20728;-76
2021/12/17 00:57:24;;;;;;;15.10;7.37;;;;;;;4.01;80.39;95622.88;4987177;28;20283;-75
2021/12/17 00:59:53;;;;;;;18.70;9.57;;;;;;;4.02;80.28;95619.31;4995244;28;20291;-76
2021/12/17 01:02:23;;;;;;;20.40;9.17;;;;;;;3.85;79.61;95594.09;4995438;28;20173;-75
2021/12/17 01:04:53;;;;;;;15.90;7.93;;;;;;;3.92;79.71;95626.38;4995312;28;20184;-75
2021/12/17 01:07:21;;;;;;;16.03;8.63;;;;;;;3.89;80.43;95621.50;4995326;28;20260;-76
2021/12/17 01:09:47;;;;;;;14.77;8.57;;;;;;;3.96;79.93;95613.88;4995176;28;20212;-76
2021/12/17 01:12:13;;;;;;;16.77;9.30;;;;;;;3.86;79.63;95581.91;4993498;28;20262;-75
2021/12/17 01:14:40;;;;;;;17.60;9.57;;;;;;;4.03;79.46;95614.91;4994973;28;20241;-75
2021/12/17 01:17:08;;;;;;;13.50;8.50;;;;;;;4.06;78.95;95610.22;4994710;28;20242;-75
2021/12/17 01:25:10;;;;;;;11.60;6.73;;;;;;;4.00;78.34;95594.38;4995105;28;20196;-75
2021/12/17 01:35:48;;;;;;;8.53;5.13;;;;;;;4.15;78.07;95585.84;4988863;28;20298;-75
2021/12/17 01:43:25;;;;;;;9.63;5.73;;;;;;;4.24;76.17;95586.72;4994570;28;20713;-76
2021/12/17 01:45:51;;;;;;;15.67;7.27;;;;;;;4.18;75.41;95585.53;4994424;28;20219;-76
2021/12/17 01:48:22;;;;;;;15.00;7.00;;;;;;;4.20;75.57;95589.78;4994308;28;20662;-76
2021/12/17 02:01:41;;;;;;;9.13;5.30;;;;;;;4.09;75.25;95542.19;4994307;28;20204;-76
2021/12/17 02:04:09;;;;;;;7.33;4.73;;;;;;;4.35;75.25;95588.25;4994258;28;20181;-76
2021/12/17 02:06:37;;;;;;;7.87;5.43;;;;;;;4.22;74.90;95572.22;4994020;28;20263;-76
2021/12/17 02:09:59;;;;;;;8.47;5.20;;;;;;;4.34;75.38;95591.81;4994348;28;20585;-76
2021/12/17 02:28:49;;;;;;;10.47;5.50;;;;;;;4.41;75.06;95580.63;4993973;28;20192;-76
2021/12/17 02:31:25;;;;;;;9.13;5.50;;;;;;;4.40;75.48;95565.16;4993562;28;20654;-76
2021/12/17 02:33:52;;;;;;;11.17;6.57;;;;;;;4.43;75.14;95570.03;4993599;28;20184;-76
2021/12/17 02:36:22;;;;;;;8.90;5.30;;;;;;;4.43;75.16;95570.03;4993033;28;20559;-76
2021/12/17 02:38:48;;;;;;;9.67;6.47;;;;;;;4.36;74.75;95553.41;4993590;28;20666;-76
2021/12/17 02:46:41;;;;;;;22.67;15.43;;;;;;;4.50;74.66;95561.44;4989483;28;20252;-76
2021/12/17 02:49:07;;;;;;;21.30;13.93;;;;;;;4.44;75.02;95566.47;4993515;28;20224;-76
2021/12/17 02:51:33;;;;;;;20.63;13.90;;;;;;;4.50;75.71;95573.66;4993133;28;20712;-75
2021/12/17 02:53:59;;;;;;;18.13;10.17;;;;;;;4.52;75.22;95575.13;4993127;28;20177;-76
2021/12/17 02:56:25;;;;;;;12.67;7.30;;;;;;;4.50;75.42;95558.00;4992942;28;20308;-76
2021/12/17 02:58:53;;;;;;;13.47;8.03;;;;;;;4.60;75.12;95569.16;4992811;28;20254;-75
2021/12/17 03:01:18;;;;;;;11.37;6.53;;;;;;;4.59;75.29;95562.28;4992932;28;20187;-76
2021/12/17 03:03:48;;;;;;;12.83;7.13;;;;;;;4.71;75.09;95573.28;4992843;28;20180;-76
2021/12/17 03:06:14;;;;;;;11.13;6.63;;;;;;;4.35;75.20;95523.91;4993169;28;20196;-76
2021/12/17 03:08:40;;;;;;;10.20;6.40;;;;;;;4.58;75.82;95568.50;4992748;28;20195;-75
2021/12/17 03:11:06;;;;;;;8.57;5.60;;;;;;;4.56;76.41;95578.25;4992932;28;20703;-75
2021/12/17 03:13:34;;;;;;;13.83;6.47;;;;;;;4.54;76.97;95575.00;4992029;28;20545;-76
2021/12/17 03:16:10;;;;;;;12.47;7.00;;;;;;;4.47;76.70;95553.13;4992860;28;20185;-76
2021/12/17 03:23:54;;;;;;;12.27;6.97;;;;;;;4.53;79.46;95566.34;4992630;28;20725;-76
2021/12/17 03:26:21;;;;;;;10.23;6.43;;;;;;;4.59;79.88;95572.72;4992554;28;20271;-76
2021/12/17 03:28:49;;;;;;;13.20;7.17;;;;;;;4.58;80.53;95568.50;4992494;28;20561;-76
2021/12/17 03:31:16;;;;;;;11.43;6.50;;;;;;;4.53;80.32;95565.53;4991615;28;20607;-76
2021/12/17 03:33:48;;;;;;;13.03;6.90;;;;;;;4.51;80.71;95563.06;4992529;28;20561;-76
2021/12/17 03:36:15;;;;;;;13.53;7.20;;;;;;;4.60;80.81;95560.50;4992702;28;20184;-76
2021/12/17 03:38:42;;;;;;;13.70;7.13;;;;;;;4.51;80.59;95557.03;4992755;28;20255;-76
2021/12/17 03:41:21;;;;;;;15.70;8.23;;;;;;;4.46;81.30;95554.91;4992175;28;20253;-75
2021/12/17 03:43:48;;;;;;;16.50;9.93;;;;;;;4.41;81.54;95546.72;4991165;28;20196;-76
2021/12/17 03:46:14;;;;;;;22.67;10.23;;;;;;;4.46;81.24;95548.88;4991760;28;20176;-75
2021/12/17 03:48:41;;;;;;;16.87;8.80;;;;;;;4.42;80.77;95540.56;4991864;28;20180;-75
2021/12/17 03:51:13;;;;;;;18.97;8.93;;;;;;;4.50;80.68;95547.59;4991621;28;20574;-75
2021/12/17 03:53:41;;;;;;;24.87;9.80;;;;;;;4.48;81.04;95541.75;4991658;28;20181;-75
2021/12/17 03:56:06;;;;;;;19.03;9.63;;;;;;;4.47;81.54;95537.50;4991878;28;20235;-75
2021/12/17 03:58:32;;;;;;;35.53;11.77;;;;;;;4.44;81.23;95524.75;4991608;28;20220;-75
2021/12/17 04:00:57;;;;;;;20.17;9.70;;;;;;;4.33;82.00;95535.44;4991613;28;20611;-75
2021/12/17 04:03:23;;;;;;;18.97;8.77;;;;;;;4.31;82.42;95529.59;4990933;28;20196;-75
2021/12/17 04:05:49;;;;;;;16.80;8.70;;;;;;;4.35;82.64;95529.13;4991861;28;20208;-75
2021/12/17 04:08:15;;;;;;;19.60;8.97;;;;;;;4.29;82.83;95524.53;4992054;28;20181;-75
2021/12/17 04:10:44;;;;;;;15.17;8.03;;;;;;;4.31;83.05;95516.56;4991714;28;20239;-75
2021/12/17 04:13:25;;;;;;;17.37;8.53;;;;;;;4.33;83.01;95522.44;4991669;28;20183;-75
2021/12/17 04:15:56;;;;;;;16.20;9.27;;;;;;;4.38;83.29;95512.38;4991016;28;20192;-75
2021/12/17 04:18:22;;;;;;;23.97;12.83;;;;;;;4.43;83.20;95515.31;4990912;28;20634;-75
2021/12/17 04:20:48;;;;;;;21.07;11.10;;;;;;;4.48;82.98;95500.03;4991081;28;20291;-74
2021/12/17 04:23:14;;;;;;;20.20;10.87;;;;;;;4.46;82.88;95507.19;4991625;28;20264;-75
2021/12/17 04:25:40;;;;;;;19.00;10.80;;;;;;;4.44;83.39;95502.13;4991100;28;20176;-75
2021/12/17 04:28:05;;;;;;;22.13;10.90;;;;;;;4.45;83.29;95488.13;4991209;28;20188;-74
2021/12/17 04:30:32;;;;;;;20.33;9.57;;;;;;;4.48;83.37;95481.78;4991075;28;20188;-74
2021/12/17 04:32:57;;;;;;;16.90;10.13;;;;;;;4.43;83.63;95476.22;4991818;28;20169;-75
2021/12/17 04:35:23;;;;;;;19.73;11.17;;;;;;;4.40;83.94;95474.75;4991293;28;20203;-74
2021/12/17 04:37:48;;;;;;;22.67;12.60;;;;;;;4.33;84.16;95471.13;4991444;28;20268;-74
2021/12/17 04:40:14;;;;;;;29.43;12.90;;;;;;;4.15;84.65;95452.97;4991175;28;20213;-74
2021/12/17 04:42:59;;;;;;;22.10;12.17;;;;;;;4.26;84.89;95471.91;4991285;28;20189;-74
2021/12/17 04:45:25;;;;;;;19.40;11.13;;;;;;;4.32;85.03;95459.09;4988281;28;20620;-74
2021/12/17 04:58:46;;;;;;;25.07;12.37;;;;;;;4.37;84.85;95458.59;4990646;28;20236;-75
2021/12/17 05:01:15;;;;;;;21.80;12.63;;;;;;;4.38;85.21;95474.09;4990576;28;20181;-75
2021/12/17 05:03:42;;;;;;;15.20;8.70;;;;;;;4.42;84.72;95474.56;4990725;28;20603;-74
2021/12/17 05:06:07;;;;;;;15.20;8.23;;;;;;;4.42;84.25;95474.56;4990988;28;20681;-74
2021/12/17 05:08:33;;;;;;;15.53;7.63;;;;;;;4.39;84.45;95472.31;4989631;28;20197;-74
2021/12/17 05:19:10;;;;;;;20.63;9.70;;;;;;;4.16;85.30;95438.97;4991470;28;20212;-76
2021/12/17 05:21:36;;;;;;;27.27;11.27;;;;;;;4.44;85.56;95472.63;4991860;28;20251;-75
2021/12/17 05:24:02;;;;;;;21.83;10.60;;;;;;;4.42;84.94;95467.56;4991149;28;20204;-75
2021/12/17 05:26:27;;;;;;;19.23;9.03;;;;;;;4.40;84.82;95466.13;4991591;28;20256;-76
2021/12/17 05:28:55;;;;;;;17.60;9.07;;;;;;;4.36;85.68;95473.44;4991667;28;20198;-76
2021/12/17 05:31:21;;;;;;;18.60;8.63;;;;;;;4.40;85.21;95472.16;4990942;28;20177;-76
2021/12/17 05:33:48;;;;;;;17.27;9.17;;;;;;;4.37;85.49;95469.84;4990591;28;20188;-76
2021/12/17 05:36:14;;;;;;;21.20;9.33;;;;;;;4.38;85.25;95470.66;4990337;28;20232;-76
2021/12/17 05:38:40;;;;;;;22.97;10.03;;;;;;;4.25;85.60;95446.81;4992542;28;20651;-76
2021/12/17 05:41:05;;;;;;;22.03;9.87;;;;;;;4.38;85.81;95462.84;4993881;28;20188;-75
2021/12/17 05:43:35;;;;;;;23.13;10.57;;;;;;;4.17;85.83;95431.97;4993775;28;20217;-77
2021/12/17 05:46:08;;;;;;;26.23;10.07;;;;;;;4.41;86.35;95463.34;4994136;28;20192;-75
2021/12/17 05:48:34;;;;;;;16.00;8.97;;;;;;;4.45;85.95;95461.25;4994818;28;20268;-75
2021/12/17 05:51:02;;;;;;;20.80;10.63;;;;;;;4.45;86.03;95453.41;4995355;28;20188;-76
2021/12/17 05:53:31;;;;;;;24.07;11.90;;;;;;;4.41;85.98;95446.91;4994870;28;20646;-76
2021/12/17 05:55:57;;;;;;;23.97;12.93;;;;;;;4.45;85.79;95453.41;4994140;28;20196;-76
2021/12/17 05:58:26;;;;;;;23.10;12.67;;;;;;;4.46;85.73;95463.69;4993788;28;20224;-76
2021/12/17 06:00:52;;;;;;;28.57;12.27;;;;;;;4.52;85.24;95467.44;4975220;28;20210;-76
2021/12/17 06:03:18;;;;;;;28.50;12.33;;;;;;;4.48;85.41;95466.16;4990205;28;20177;-76
2021/12/17 06:05:44;;;;;;;27.00;12.87;;;;;;;4.55;85.05;95475.78;4994348;28;20601;-76
2021/12/17 06:08:10;;;;;;;32.93;12.93;;;;;;;4.65;84.39;95490.47;4994744;28;20177;-76
2021/12/17 06:10:35;;;;;;;29.17;12.80;;;;;;;4.63;83.97;95488.03;4994718;28;20173;-76
2021/12/17 06:13:01;;;;;;;34.50;14.70;;;;;;;4.66;83.77;95489.50;4994543;28;20185;-76
2021/12/17 06:15:26;;;;;;;36.10;14.43;;;;;;;4.67;83.55;95494.53;4994371;28;20180;-76
2021/12/17 06:17:52;;;;;;;24.83;10.97;;;;;;;4.74;82.78;95499.94;4994214;28;20170;-76
2021/12/17 06:20:20;;;;;;;27.00;11.53;;;;;;;4.67;82.78;95498.97;4994448;28;20685;-76
2021/12/17 06:22:47;;;;;;;23.43;10.60;;;;;;;4.66;83.02;95498.16;4992920;28;20581;-76
2021/12/17 06:25:13;;;;;;;26.67;11.30;;;;;;;4.67;82.89;95497.13;4994279;28;20180;-76
2021/12/17 06:27:39;;;;;;;28.83;11.57;;;;;;;4.70;82.88;95501.22;4994176;28;20189;-76
2021/12/17 06:30:11;;;;;;;26.70;11.83;;;;;;;4.68;82.79;95492.75;4994045;28;20685;-76
2021/12/17 06:32:37;;;;;;;22.97;10.97;;;;;;;4.76;83.06;95487.53;4994454;28;20232;-76
2021/12/17 06:35:04;;;;;;;14.17;7.30;;;;;;;4.75;83.20;95483.34;4993848;28;20204;-76
2021/12/17 06:37:30;;;;;;;23.27;10.60;;;;;;;4.78;82.83;95488.22;4993856;28;20685;-76
2021/12/17 06:39:55;;;;;;;27.30;13.07;;;;;;;4.74;83.18;95490.34;4993905;28;20201;-76
2021/12/17 06:42:21;;;;;;;21.70;9.20;;;;;;;4.71;83.68;95490.66;4993599;28;20712;-76
2021/12/17 06:44:47;;;;;;;14.70;7.50;;;;;;;4.70;83.60;95489.00;4993688;28;20165;-76
2021/12/17 06:47:36;;;;;;;25.93;10.57;;;;;;;4.66;83.77;95490.31;4992882;28;20650;-76
2021/12/17 06:54:43;;;;;;;30.27;11.77;;;;;;;4.74;84.22;95495.56;4992275;28;20654;-76
2021/12/17 07:01:17;;;;;;;15.00;8.03;;;;;;;4.66;83.48;95484.28;4971381;28;20610;-76
2021/12/17 07:11:54;;;;;;;21.37;10.90;;;;;;;4.76;83.63;95488.38;4993795;28;20196;-76
2021/12/17 07:33:17;;;;;;;22.23;10.17;;;;;;;4.64;85.00;95467.97;4992761;28;20191;-76
2021/12/17 07:35:44;;;;;;;23.33;12.63;;;;;;;4.74;85.31;95476.47;4992242;28;20181;-76
2021/12/17 07:40:54;;;;;;;34.30;22.43;;;;;;;4.73;85.58;95472.25;4992646;28;20239;-75
2021/12/17 07:46:15;;;;;;;29.30;15.80;;;;;;;4.72;86.51;95470.59;4978904;28;20264;-75
2021/12/17 07:48:40;;;;;;;36.50;21.37;;;;;;;4.78;86.22;95477.78;4992618;28;20642;-75
2021/12/17 07:51:10;;;;;;;33.87;18.90;;;;;;;4.80;86.14;95484.47;4992443;28;20630;-75
2021/12/17 07:53:36;;;;;;;27.60;16.03;;;;;;;4.83;85.83;95484.16;4992471;28;20180;-76
2021/12/17 07:56:14;;;;;;;33.03;16.70;;;;;;;4.79;86.05;95479.41;4990496;28;20188;-76
2021/12/17 07:58:41;;;;;;;36.03;18.30;;;;;;;4.69;86.03;95482.16;4992329;28;20221;-74
2021/12/17 08:01:10;;;;;;;27.83;13.90;;;;;;;4.73;86.38;95483.50;4991747;28;20206;-75
2021/12/17 08:03:37;;;;;;;24.23;14.17;;;;;;;4.72;86.44;95484.47;4991363;28;20585;-74
2021/12/17 08:06:02;;;;;;;25.50;14.90;;;;;;;4.55;86.81;95473.16;4992156;28;20173;-75
2021/12/17 08:08:30;;;;;;;24.17;13.93;;;;;;;4.63;87.35;95488.03;4991806;28;20188;-75
2021/12/17 08:10:56;;;;;;;19.33;10.27;;;;;;;4.69;87.71;95495.19;4991907;28;20569;-75
2021/12/17 08:13:25;;;;;;;17.30;10.10;;;;;;;4.71;87.54;95489.81;4992120;28;20169;-75
2021/12/17 08:24:19;;;;;;;21.60;13.27;;;;;;;4.57;87.95;95454.78;4992126;28;20184;-75
2021/12/17 08:31:28;;;;;;;34.83;17.87;;;;;;;4.67;88.14;95468.47;4991643;28;20169;-75
2021/12/17 08:33:54;;;;;;;35.87;18.63;;;;;;;4.74;87.99;95477.31;4990548;28;20646;-75
2021/12/17 08:36:20;;;;;;;32.77;16.63;;;;;;;4.69;87.49;95450.88;4991363;28;20184;-75
2021/12/17 08:38:49;;;;;;;39.53;19.93;;;;;;;4.90;87.58;95466.91;4991376;28;20637;-75
2021/12/17 08:41:16;;;;;;;39.00;20.37;;;;;;;4.93;86.54;95463.94;4991015;28;20260;-75
2021/12/17 08:43:44;;;;;;;36.93;20.40;;;;;;;4.97;86.56;95466.25;4987841;28;20157;-75
2021/12/17 08:46:13;;;;;;;37.67;21.83;;;;;;;4.82;86.77;95447.81;4991490;28;20177;-75
2021/12/17 08:48:38;;;;;;;48.50;22.23;;;;;;;4.83;86.90;95444.22;4991503;28;20177;-75
2021/12/17 08:51:06;;;;;;;30.90;17.07;;;;;;;4.82;87.09;95447.81;4991294;28;20165;-75
2021/12/17 08:53:32;;;;;;;33.97;16.07;;;;;;;4.92;87.60;95445.88;4990064;28;20575;-75
2021/12/17 08:55:58;;;;;;;25.27;13.00;;;;;;;5.16;87.08;95438.06;4991733;28;20161;-75
2021/12/17 08:58:23;;;;;;;18.30;10.43;;;;;;;5.15;85.79;95435.59;4990041;28;20231;-75
2021/12/17 09:00:49;;;;;;;23.50;11.53;;;;;;;5.15;86.07;95427.78;4991555;28;20197;-75
2021/12/17 09:03:14;;;;;;;24.27;10.80;;;;;;;5.35;84.95;95447.34;4991166;28;20181;-75
2021/12/17 09:05:42;;;;;;;17.93;10.17;;;;;;;5.33;84.96;95449.31;4991400;28;20177;-75
2021/12/17 09:08:10;;;;;;;22.80;12.13;;;;;;;5.28;85.40;95441.94;4991560;28;20193;-75
2021/12/17 09:10:36;;;;;;;18.20;10.00;;;;;;;5.21;85.87;95433.16;4990987;28;20673;-75
2021/12/17 09:13:01;;;;;;;14.27;8.90;;;;;;;5.15;86.10;95431.22;4993797;28;20181;-75
2021/12/17 09:15:27;;;;;;;13.37;7.90;;;;;;;5.02;85.95;95398.72;4994861;28;20176;-74
2021/12/17 09:17:53;;;;;;;13.20;7.63;;;;;;;5.27;85.96;95419.47;4994840;28;20169;-74
2021/12/17 09:20:19;;;;;;;17.20;8.50;;;;;;;5.31;86.49;95418.16;4994914;28;20211;-75
2021/12/17 09:22:44;;;;;;;16.07;9.17;;;;;;;5.36;86.33;95416.84;4995126;28;20177;-75
2021/12/17 09:25:10;;;;;;;13.57;8.63;;;;;;;5.45;85.89;95414.03;4995405;28;20177;-74
2021/12/17 09:27:38;;;;;;;15.40;9.00;;;;;;;5.48;86.07;95411.09;4995059;28;20208;-75
2021/12/17 09:30:06;;;;;;;18.07;10.20;;;;;;;5.48;85.90;95421.56;4995198;28;20181;-75
2021/12/17 09:32:32;;;;;;;20.23;10.30;;;;;;;5.48;85.29;95413.72;4995143;28;20188;-78
2021/12/17 09:34:58;;;;;;;23.33;9.53;;;;;;;5.28;85.79;95391.53;4994747;28;20172;-75
2021/12/17 09:37:23;;;;;;;20.07;9.63;;;;;;;5.57;85.83;95409.28;4995329;28;20205;-76
2021/12/17 09:39:49;;;;;;;19.20;9.17;;;;;;;5.40;85.76;95408.50;4995144;28;20650;-76
2021/12/17 09:42:14;;;;;;;17.40;9.83;;;;;;;5.35;85.94;95405.59;4994857;28;20176;-76
2021/12/17 09:44:41;;;;;;;19.63;10.10;;;;;;;5.31;86.63;95383.41;4994832;28;20193;-76
2021/12/17 09:47:06;;;;;;;17.03;9.73;;;;;;;5.38;85.95;95386.97;4995173;28;20267;-76
2021/12/17 09:49:32;;;;;;;18.80;10.50;;;;;;;5.41;86.48;95389.25;4995173;28;20264;-76
2021/12/17 09:51:59;;;;;;;16.37;9.40;;;;;;;5.51;86.65;95381.25;4995029;28;20616;-76
2021/12/17 09:54:25;;;;;;;15.83;8.70;;;;;;;5.64;86.68;95371.91;4994741;28;20223;-76
2021/12/17 09:56:51;;;;;;;15.60;8.40;;;;;;;5.72;86.27;95365.84;4994675;28;20200;-76
2021/12/17 09:59:16;;;;;;;13.67;7.80;;;;;;;5.81;85.52;95374.47;4994669;28;20655;-76
2021/12/17 10:01:43;;;;;;;12.37;6.63;;;;;;;5.74;85.29;95357.84;4994770;28;20185;-76
2021/12/17 10:04:26;;;;;;;8.63;6.03;;;;;;;5.67;85.56;95368.97;4994278;28;20181;-76
2021/12/17 10:06:52;;;;;;;12.53;7.10;;;;;;;5.63;86.11;95362.44;4988391;28;20215;-76
2021/12/17 10:09:18;;;;;;;16.50;10.33;;;;;;;5.46;86.63;95311.25;4994785;28;20177;-77
2021/12/17 10:12:03;;;;;;;13.27;7.20;;;;;;;5.75;86.03;95349.03;4994509;28;20181;-76
2021/12/17 10:14:29;;;;;;;15.00;8.63;;;;;;;5.82;85.45;95336.91;4993401;28;20561;-76
2021/12/17 10:17:13;;;;;;;12.30;7.50;;;;;;;5.83;85.03;95336.75;4991451;28;20220;-76
2021/12/17 10:19:45;;;;;;;15.43;9.67;;;;;;;5.89;84.50;95335.28;4990266;28;20193;-76
2021/12/17 10:22:12;;;;;;;15.67;8.70;;;;;;;5.97;84.54;95330.00;4991124;28;20264;-76
2021/12/17 10:24:42;;;;;;;12.03;8.17;;;;;;;5.97;84.03;95319.56;4990616;28;20208;-76
2021/12/17 10:27:41;;;;;;;10.60;6.03;;;;;;;5.99;83.79;95314.97;4992191;28;20173;-76
2021/12/17 10:30:19;;;;;;;11.53;8.10;;;;;;;5.99;83.90;95315.81;4979799;28;20188;-76
2021/12/17 10:32:51;;;;;;;15.40;8.70;;;;;;;5.86;84.09;95284.16;4990919;28;20210;-76
2021/12/17 10:35:33;;;;;;;12.87;8.20;;;;;;;5.97;84.27;95301.28;4990732;28;20177;-76
2021/12/17 10:38:04;;;;;;;14.50;9.47;;;;;;;6.07;84.15;95287.00;4991166;28;20177;-76
2021/12/17 10:40:38;;;;;;;16.43;9.73;;;;;;;6.13;83.74;95290.75;4990514;28;20193;-76
2021/12/17 10:51:13;;;;;;;48.00;12.80;;;;;;;6.18;83.34;95264.09;4991985;28;20180;-76
2021/12/17 10:53:54;;;;;;;34.33;11.73;;;;;;;6.22;83.47;95265.38;4992374;28;20177;-76
2021/12/17 10:56:29;;;;;;;9.83;5.87;;;;;;;6.16;82.77;95271.28;4992298;28;20176;-76
2021/12/17 10:59:05;;;;;;;7.60;5.30;;;;;;;6.05;82.66;95273.28;4991945;28;20337;-76
2021/12/17 11:01:45;;;;;;;14.13;7.63;;;;;;;5.97;83.41;95280.38;4992233;28;20216;-75
2021/12/17 11:04:23;;;;;;;10.80;7.07;;;;;;;5.96;83.95;95276.97;4992136;28;20617;-76
2021/12/17 11:06:51;;;;;;;6.80;4.20;;;;;;;5.76;84.92;95285.34;4992073;28;20738;-76
2021/12/17 11:09:50;;;;;;;7.37;4.57;;;;;;;5.61;85.94;95278.25;4992070;28;20184;-76
2021/12/17 11:12:32;;;;;;;16.10;7.30;;;;;;;5.65;87.12;95271.69;4992099;28;20656;-76
2021/12/17 11:15:19;;;;;;;30.50;9.57;;;;;;;5.69;86.89;95267.75;4992032;28;20169;-76
2021/12/17 11:18:00;;;;;;;26.63;8.20;;;;;;;5.77;86.87;95263.47;4991825;28;20227;-76
2021/12/17 11:20:27;;;;;;;277.97;25.93;;;;;;;5.84;86.99;95254.78;4991740;28;20271;-76
2021/12/17 11:22:55;;;;;;;89.67;17.17;;;;;;;5.90;86.87;95243.66;4991744;28;20185;-76
2021/12/17 11:25:23;;;;;;;36.00;10.60;;;;;;;5.97;86.41;95246.41;4991594;28;20260;-76
2021/12/17 11:27:50;;;;;;;68.47;14.90;;;;;;;6.07;87.28;95236.53;4991786;28;20185;-76
2021/12/17 11:30:19;;;;;;;17.23;8.97;;;;;;;5.96;86.37;95223.91;4990338;28;20565;-76
2021/12/17 11:32:46;;;;;;;16.23;8.33;;;;;;;5.97;86.07;95247.22;4991704;28;20247;-76
2021/12/17 11:35:13;;;;;;;33.77;9.50;;;;;;;6.00;86.10;95218.13;4990948;28;20208;-76
2021/12/17 11:37:42;;;;;;;19.53;7.50;;;;;;;6.07;85.70;95239.16;4990810;28;20185;-76
2021/12/17 11:40:16;;;;;;;17.07;8.10;;;;;;;6.11;84.98;95239.63;4991372;28;20669;-76
2021/12/17 11:43:01;;;;;;;16.70;5.33;;;;;;;6.10;84.12;95223.13;4991396;28;20255;-76
2021/12/17 11:45:29;;;;;;;14.87;7.90;;;;;;;6.19;83.73;95221.28;4991280;28;20177;-75
2021/12/17 11:48:17;;;;;;;11.73;7.07;;;;;;;6.13;83.38;95220.19;4991249;28;20177;-74
2021/12/17 11:50:43;;;;;;;18.00;8.40;;;;;;;6.04;83.89;95222.03;4986073;28;20663;-75
2021/12/17 11:53:22;;;;;;;14.57;9.20;;;;;;;6.05;84.28;95221.03;4991778;28;20192;-75
2021/12/17 11:55:56;;;;;;;16.37;8.90;;;;;;;6.05;84.41;95209.78;4991257;28;20203;-75
2021/12/17 11:58:48;;;;;;;12.33;6.30;;;;;;;5.97;83.97;95208.03;4991271;28;20723;-74
2021/12/17 12:01:52;;;;;;;19.73;9.10;;;;;;;6.00;83.59;95207.69;4987927;28;20197;-74
2021/12/17 12:04:33;;;;;;;19.63;10.30;;;;;;;5.94;83.69;95207.56;4989809;28;20176;-75
2021/12/17 12:07:05;;;;;;;15.43;7.20;;;;;;;5.90;83.09;95212.31;4992037;28;20598;-75
2021/12/17 12:10:13;;;;;;;10.43;5.90;;;;;;;5.86;83.28;95210.22;4991640;28;20181;-75
2021/12/17 12:12:48;;;;;;;14.37;6.83;;;;;;;5.76;83.08;95207.00;4991734;28;20176;-75
2021/12/17 12:15:17;;;;;;;16.33;7.13;;;;;;;5.75;82.84;95203.56;4991198;28;20185;-76
2021/12/17 12:18:03;;;;;;;12.67;7.53;;;;;;;5.73;82.59;95194.28;4990045;28;20267;-75
2021/12/17 12:20:51;;;;;;;10.50;6.47;;;;;;;5.74;81.77;95190.69;4991512;28;20193;-74
2021/12/17 12:23:19;;;;;;;11.73;6.40;;;;;;;5.69;81.35;95186.00;4989659;28;20177;-75
2021/12/17 12:25:47;;;;;;;13.10;6.53;;;;;;;5.61;81.59;95173.00;4991675;28;20231;-75
2021/12/17 12:28:16;;;;;;;10.27;5.97;;;;;;;5.64;81.47;95165.59;4991551;28;20188;-75
2021/12/17 12:30:45;;;;;;;14.43;7.53;;;;;;;5.41;81.06;95125.63;4991399;28;20198;-75
2021/12/17 12:33:14;;;;;;;10.27;6.27;;;;;;;5.57;80.36;95159.44;4991848;28;20172;-75
2021/12/17 12:35:39;;;;;;;10.50;6.17;;;;;;;5.46;80.98;95161.63;4990350;28;20180;-75
2021/12/17 12:38:14;;;;;;;11.10;6.20;;;;;;;5.47;81.27;95153.63;4991462;28;20173;-75
2021/12/17 12:40:44;;;;;;;12.33;6.57;;;;;;;5.48;80.14;95162.28;4989776;28;20619;-75
2021/12/17 12:43:31;;;;;;;12.77;7.37;;;;;;;5.51;79.98;95156.72;4989385;28;20177;-75
2021/12/17 12:45:57;;;;;;;8.63;6.13;;;;;;;5.38;78.60;95151.22;4990105;28;20605;-75
2021/12/17 12:48:38;;;;;;;7.77;4.67;;;;;;;5.26;78.62;95141.19;4994558;28;20181;-75
2021/12/17 12:51:20;;;;;;;9.70;4.53;;;;;;;5.25;78.37;95154.41;4994944;28;20173;-75
2021/12/17 12:54:02;;;;;;;8.40;4.07;;;;;;;5.23;78.86;95158.97;4995679;28;20177;-76
2021/12/17 12:56:29;;;;;;;8.37;4.37;;;;;;;5.19;78.35;95150.66;4995645;28;20161;-75
2021/12/17 12:58:54;;;;;;;7.43;4.50;;;;;;;5.17;78.60;95149.22;4994540;28;20228;-75
2021/12/17 13:01:21;;;;;;;5.47;3.43;;;;;;;5.17;78.43;95131.78;4994332;28;20233;-75
2021/12/17 13:03:48;;;;;;;7.20;4.37;;;;;;;5.23;78.00;95120.66;4994299;28;20176;-76
2021/12/17 13:06:19;;;;;;;8.60;5.00;;;;;;;5.19;78.33;95139.44;4995370;28;20185;-76
2021/12/17 13:08:59;;;;;;;10.87;5.90;;;;;;;5.27;78.73;95147.22;4995379;28;20555;-75
2021/12/17 13:11:25;;;;;;;6.47;3.93;;;;;;;5.27;77.95;95163.72;4994869;28;20181;-75
2021/12/17 13:13:53;;;;;;;7.53;3.83;;;;;;;5.16;77.98;95126.72;4995124;28;20177;-75
2021/12/17 13:16:34;;;;;;;7.47;4.50;;;;;;;5.22;78.05;95152.94;4994344;28;20173;-75
2021/12/17 13:24:29;;;;;;;9.70;5.07;;;;;;;5.26;77.04;95161.25;4994516;28;20184;-75
2021/12/17 13:27:01;;;;;;;8.93;5.10;;;;;;;5.27;77.43;95152.44;4987465;28;20236;-75
2021/12/17 13:29:29;;;;;;;7.00;4.53;;;;;;;5.17;77.11;95131.78;4994669;28;20681;-76
2021/12/17 13:31:57;;;;;;;14.53;5.20;;;;;;;5.29;77.23;95135.63;4986768;28;20175;-75
2021/12/17 13:34:22;;;;;;;11.63;6.60;;;;;;;5.46;76.31;95165.06;4995081;28;20169;-75
2021/12/17 13:37:25;;;;;;;8.07;4.80;;;;;;;5.41;75.82;95167.38;4994753;28;20170;-75
2021/12/17 13:39:57;;;;;;;8.33;5.90;;;;;;;5.40;75.62;95172.75;4994385;28;20212;-76
2021/12/17 13:42:27;;;;;;;8.23;4.70;;;;;;;5.35;75.17;95175.09;4994844;28;20184;-76
2021/12/17 13:44:53;;;;;;;10.87;5.20;;;;;;;5.32;75.03;95164.00;4994975;28;20181;-75
2021/12/17 13:47:29;;;;;;;13.40;5.87;;;;;;;5.22;75.46;95173.00;4994797;28;20173;-75
2021/12/17 13:50:17;;;;;;;14.67;4.93;;;;;;;5.12;75.88;95156.75;4994197;28;20181;-75
2021/12/17 13:53:01;;;;;;;9.47;5.43;;;;;;;5.11;76.08;95155.94;4991922;28;20282;-75
2021/12/17 13:55:42;;;;;;;11.10;5.87;;;;;;;5.15;75.96;95143.38;4992119;28;20658;-75
2021/12/17 13:58:11;;;;;;;10.60;5.43;;;;;;;5.17;75.17;95159.66;4993327;28;20227;-75
2021/12/17 14:00:42;;;;;;;12.47;6.47;;;;;;;5.19;75.61;95160.31;4988564;28;20181;-75
2021/12/17 14:03:13;;;;;;;9.50;5.27;;;;;;;5.15;75.09;95146.78;4993973;28;20184;-75
2021/12/17 14:05:40;;;;;;;16.17;7.67;;;;;;;5.15;75.29;95148.59;4994202;28;20193;-75
2021/12/17 14:08:11;;;;;;;8.20;5.60;;;;;;;5.15;76.01;95138.16;4993585;28;20185;-75
2021/12/17 14:10:38;;;;;;;14.70;5.93;;;;;;;5.03;76.08;95142.09;4993569;28;20177;-75
2021/12/17 14:13:14;;;;;;;11.73;5.90;;;;;;;5.00;75.55;95150.28;4993679;28;20181;-75
2021/12/17 14:15:41;;;;;;;18.00;7.50;;;;;;;5.06;76.01;95160.84;4993751;28;20216;-74
2021/12/17 14:18:09;;;;;;;8.23;4.63;;;;;;;5.08;75.97;95164.09;4994152;28;20201;-75
2021/12/17 14:20:45;;;;;;;11.57;6.53;;;;;;;5.10;75.46;95162.13;4993861;28;20351;-75
2021/12/17 14:23:22;;;;;;;9.53;5.63;;;;;;;5.07;75.32;95172.09;4993664;28;20172;-75
2021/12/17 14:25:53;;;;;;;9.80;6.40;;;;;;;5.02;75.67;95180.41;4993904;28;20180;-75
2021/12/17 14:28:25;;;;;;;7.10;5.00;;;;;;;5.04;76.05;95172.44;4991319;28;20165;-74
2021/12/17 14:31:01;;;;;;;10.23;5.43;;;;;;;5.04;75.55;95177.66;4993050;28;20169;-75
2021/12/17 14:33:35;;;;;;;10.13;5.63;;;;;;;4.96;76.16;95175.06;4993541;28;20168;-75
2021/12/17 14:36:04;;;;;;;12.20;6.87;;;;;;;4.88;76.76;95168.91;4993678;28;20670;-75
2021/12/17 14:38:35;;;;;;;11.00;6.43;;;;;;;4.82;76.86;95180.00;4993720;28;20173;-75
2021/12/17 14:41:02;;;;;;;16.20;7.33;;;;;;;4.85;76.87;95179.66;4993053;28;20204;-75
2021/12/17 14:43:44;;;;;;;15.67;7.90;;;;;;;4.86;77.30;95183.91;4993362;28;20728;-75